Terminal Aerodrome Forecast
Issued by NWS

Home | Current Version | Previous Version | Text Only | Print | Product List | Glossary On
Versions: 1 2 3 4 5 6 7 8 9 10 11 12 13 14 15 16 17 18 19 20
000
FTUS43 KGRB 260821 AAB
TAFCWA
TAF AMD
KCWA 260821Z 2608/2706 19006KT 3SM -SHRA BKN035 WS020/23035KT
      TEMPO 2608/2612 1SM +TSRA BKN025CB
     FM261200 21006KT 6SM -TSRA SCT025 OVC035CB
     FM261500 24006KT P6SM -SHRA BKN025
     FM261900 26006KT P6SM BKN030 OVC150
     FM270000 32004KT P6SM SCT030 BKN150=

USA.gov is the U.S. government's official web portal to all federal, state and local government web resources and services.